Terminal Aerodrome Forecast
Issued by NWS

Home | Current Version | Previous Version | Text Only | Print | Product List | Glossary On
Versions: 1 2 3 4 5 6 7 8 9 10 11 12 13 14 15 16 17
884
FTUS43 KABR 211123
TAFMBG
TAF
KMBG 211123Z 2112/2212 12011KT P6SM -SHRA VCTS OVC100CB
      TEMPO 2112/2116 VRB20G30KT TSRA
     FM211600 14005KT P6SM BKN045
     FM211800 33010KT P6SM SCT250=

USA.gov is the U.S. government's official web portal to all federal, state and local government web resources and services.